sensor_id;sensor_type;location;lat;lon;timestamp;P1;durP1;ratioP1;P2;durP2;ratioP2
37231;SDS011;23125;48.156;15.954;2023-03-14T00:01:56;4.22;;;2.45;;
37231;SDS011;23125;48.156;15.954;2023-03-14T00:04:22;3.97;;;2.10;;
37231;SDS011;23125;48.156;15.954;2023-03-14T00:06:48;3.90;;;2.20;;
37231;SDS011;23125;48.156;15.954;2023-03-14T00:09:15;4.07;;;2.10;;
37231;SDS011;23125;48.156;15.954;2023-03-14T00:11:42;3.55;;;2.15;;
37231;SDS011;23125;48.156;15.954;2023-03-14T00:14:07;3.97;;;2.22;;
37231;SDS011;23125;48.156;15.954;2023-03-14T00:16:33;4.63;;;2.60;;
37231;SDS011;23125;48.156;15.954;2023-03-14T00:18:59;4.30;;;2.60;;
37231;SDS011;23125;48.156;15.954;2023-03-14T00:21:26;5.45;;;2.75;;
37231;SDS011;23125;48.156;15.954;2023-03-14T00:23:52;7.10;;;2.65;;
37231;SDS011;23125;48.156;15.954;2023-03-14T00:26:19;4.43;;;2.33;;
37231;SDS011;23125;48.156;15.954;2023-03-14T00:28:46;4.90;;;2.58;;
37231;SDS011;23125;48.156;15.954;2023-03-14T00:33:42;3.47;;;2.55;;
37231;SDS011;23125;48.156;15.954;2023-03-14T00:36:10;4.72;;;3.22;;
37231;SDS011;23125;48.156;15.954;2023-03-14T00:38:41;4.40;;;2.85;;
37231;SDS011;23125;48.156;15.954;2023-03-14T00:41:09;4.85;;;2.60;;
37231;SDS011;23125;48.156;15.954;2023-03-14T00:43:38;10.10;;;3.30;;
37231;SDS011;23125;48.156;15.954;2023-03-14T00:46:04;6.15;;;3.97;;
37231;SDS011;23125;48.156;15.954;2023-03-14T00:48:31;5.05;;;3.35;;
37231;SDS011;23125;48.156;15.954;2023-03-14T00:50:57;7.38;;;3.35;;
37231;SDS011;23125;48.156;15.954;2023-03-14T00:53:23;8.10;;;4.60;;
37231;SDS011;23125;48.156;15.954;2023-03-14T00:55:49;8.43;;;4.25;;
37231;SDS011;23125;48.156;15.954;2023-03-14T00:58:16;6.75;;;4.40;;
37231;SDS011;23125;48.156;15.954;2023-03-14T01:00:43;7.63;;;3.88;;
37231;SDS011;23125;48.156;15.954;2023-03-14T01:03:10;8.45;;;5.22;;
37231;SDS011;23125;48.156;15.954;2023-03-14T01:05:37;9.52;;;4.40;;
37231;SDS011;23125;48.156;15.954;2023-03-14T01:08:03;8.20;;;4.20;;
37231;SDS011;23125;48.156;15.954;2023-03-14T01:10:30;3.92;;;2.40;;
37231;SDS011;23125;48.156;15.954;2023-03-14T01:12:56;6.72;;;4.00;;
37231;SDS011;23125;48.156;15.954;2023-03-14T01:15:22;7.30;;;3.85;;
37231;SDS011;23125;48.156;15.954;2023-03-14T01:17:47;4.75;;;2.92;;
37231;SDS011;23125;48.156;15.954;2023-03-14T01:20:14;6.93;;;2.78;;
37231;SDS011;23125;48.156;15.954;2023-03-14T01:22:40;6.00;;;3.35;;
37231;SDS011;23125;48.156;15.954;2023-03-14T01:25:08;6.38;;;3.20;;
37231;SDS011;23125;48.156;15.954;2023-03-14T01:27:36;8.05;;;3.17;;
37231;SDS011;23125;48.156;15.954;2023-03-14T01:30:02;4.07;;;2.83;;
37231;SDS011;23125;48.156;15.954;2023-03-14T01:32:29;5.72;;;2.90;;
37231;SDS011;23125;48.156;15.954;2023-03-14T01:34:55;4.65;;;3.10;;
37231;SDS011;23125;48.156;15.954;2023-03-14T01:37:22;10.27;;;3.72;;
37231;SDS011;23125;48.156;15.954;2023-03-14T01:39:47;3.42;;;2.47;;
37231;SDS011;23125;48.156;15.954;2023-03-14T01:42:14;4.30;;;2.58;;
37231;SDS011;23125;48.156;15.954;2023-03-14T01:47:23;5.43;;;2.75;;
37231;SDS011;23125;48.156;15.954;2023-03-14T01:49:51;4.53;;;2.60;;
37231;SDS011;23125;48.156;15.954;2023-03-14T01:52:36;4.43;;;2.60;;
37231;SDS011;23125;48.156;15.954;2023-03-14T01:55:09;3.83;;;2.38;;
37231;SDS011;23125;48.156;15.954;2023-03-14T01:57:44;4.25;;;2.30;;
37231;SDS011;23125;48.156;15.954;2023-03-14T02:00:14;4.90;;;2.70;;
37231;SDS011;23125;48.156;15.954;2023-03-14T02:02:46;7.65;;;4.00;;
37231;SDS011;23125;48.156;15.954;2023-03-14T02:05:14;8.65;;;4.72;;
37231;SDS011;23125;48.156;15.954;2023-03-14T02:07:45;8.95;;;3.72;;
37231;SDS011;23125;48.156;15.954;2023-03-14T02:10:17;6.78;;;3.33;;
37231;SDS011;23125;48.156;15.954;2023-03-14T02:12:46;6.78;;;3.10;;
37231;SDS011;23125;48.156;15.954;2023-03-14T02:15:14;6.43;;;3.00;;
37231;SDS011;23125;48.156;15.954;2023-03-14T02:17:40;5.05;;;3.22;;
37231;SDS011;23125;48.156;15.954;2023-03-14T02:22:56;5.80;;;2.58;;
37231;SDS011;23125;48.156;15.954;2023-03-14T02:25:34;3.67;;;2.30;;
37231;SDS011;23125;48.156;15.954;2023-03-14T02:28:09;7.00;;;3.47;;
37231;SDS011;23125;48.156;15.954;2023-03-14T02:30:35;5.20;;;2.58;;
37231;SDS011;23125;48.156;15.954;2023-03-14T02:33:05;5.57;;;2.50;;
37231;SDS011;23125;48.156;15.954;2023-03-14T02:36:19;4.30;;;2.70;;
37231;SDS011;23125;48.156;15.954;2023-03-14T02:38:25;3.83;;;2.45;;
37231;SDS011;23125;48.156;15.954;2023-03-14T02:41:10;5.28;;;2.47;;
37231;SDS011;23125;48.156;15.954;2023-03-14T02:43:36;6.03;;;2.47;;
37231;SDS011;23125;48.156;15.954;2023-03-14T02:46:02;6.70;;;2.85;;
37231;SDS011;23125;48.156;15.954;2023-03-14T02:48:35;5.55;;;3.08;;
37231;SDS011;23125;48.156;15.954;2023-03-14T02:51:12;5.13;;;2.95;;
37231;SDS011;23125;48.156;15.954;2023-03-14T02:53:39;6.15;;;2.70;;
37231;SDS011;23125;48.156;15.954;2023-03-14T02:56:06;4.28;;;2.60;;
37231;SDS011;23125;48.156;15.954;2023-03-14T02:58:33;4.70;;;3.03;;
37231;SDS011;23125;48.156;15.954;2023-03-14T03:00:59;3.42;;;2.28;;
37231;SDS011;23125;48.156;15.954;2023-03-14T03:03:25;6.00;;;2.83;;
37231;SDS011;23125;48.156;15.954;2023-03-14T03:05:52;5.65;;;2.60;;
37231;SDS011;23125;48.156;15.954;2023-03-14T03:08:19;5.68;;;2.63;;
37231;SDS011;23125;48.156;15.954;2023-03-14T03:10:47;4.65;;;2.60;;
37231;SDS011;23125;48.156;15.954;2023-03-14T03:13:14;4.65;;;2.42;;
37231;SDS011;23125;48.156;15.954;2023-03-14T03:15:41;3.03;;;2.40;;
37231;SDS011;23125;48.156;15.954;2023-03-14T03:18:08;5.07;;;2.60;;
37231;SDS011;23125;48.156;15.954;2023-03-14T03:20:34;4.95;;;2.63;;
37231;SDS011;23125;48.156;15.954;2023-03-14T03:23:00;3.60;;;2.35;;
37231;SDS011;23125;48.156;15.954;2023-03-14T03:25:27;5.57;;;2.53;;
37231;SDS011;23125;48.156;15.954;2023-03-14T03:27:53;3.78;;;2.50;;
37231;SDS011;23125;48.156;15.954;2023-03-14T03:30:20;7.32;;;3.15;;
37231;SDS011;23125;48.156;15.954;2023-03-14T03:32:46;5.03;;;2.85;;
37231;SDS011;23125;48.156;15.954;2023-03-14T03:35:12;5.43;;;3.13;;
37231;SDS011;23125;48.156;15.954;2023-03-14T03:37:38;4.93;;;2.95;;
37231;SDS011;23125;48.156;15.954;2023-03-14T03:40:04;5.78;;;2.92;;
37231;SDS011;23125;48.156;15.954;2023-03-14T03:42:31;5.82;;;3.15;;
37231;SDS011;23125;48.156;15.954;2023-03-14T03:44:58;6.78;;;3.60;;
37231;SDS011;23125;48.156;15.954;2023-03-14T03:47:25;3.78;;;2.83;;
37231;SDS011;23125;48.156;15.954;2023-03-14T03:49:52;4.85;;;2.92;;
37231;SDS011;23125;48.156;15.954;2023-03-14T03:52:18;6.07;;;3.30;;
37231;SDS011;23125;48.156;15.954;2023-03-14T03:54:45;5.18;;;3.00;;
37231;SDS011;23125;48.156;15.954;2023-03-14T03:57:11;4.82;;;3.17;;
37231;SDS011;23125;48.156;15.954;2023-03-14T03:59:37;6.40;;;3.88;;
37231;SDS011;23125;48.156;15.954;2023-03-14T04:02:05;8.10;;;5.18;;
37231;SDS011;23125;48.156;15.954;2023-03-14T04:04:31;7.55;;;4.40;;
37231;SDS011;23125;48.156;15.954;2023-03-14T04:06:57;6.35;;;4.35;;
37231;SDS011;23125;48.156;15.954;2023-03-14T04:09:22;7.15;;;4.40;;
37231;SDS011;23125;48.156;15.954;2023-03-14T04:11:48;9.20;;;5.20;;
37231;SDS011;23125;48.156;15.954;2023-03-14T04:14:14;8.48;;;4.88;;
37231;SDS011;23125;48.156;15.954;2023-03-14T04:16:41;8.90;;;5.22;;
37231;SDS011;23125;48.156;15.954;2023-03-14T04:19:06;10.45;;;5.47;;
37231;SDS011;23125;48.156;15.954;2023-03-14T04:21:32;10.57;;;5.97;;
37231;SDS011;23125;48.156;15.954;2023-03-14T04:23:58;11.57;;;6.20;;
37231;SDS011;23125;48.156;15.954;2023-03-14T04:26:24;11.15;;;6.03;;
37231;SDS011;23125;48.156;15.954;2023-03-14T04:28:50;11.35;;;5.43;;
37231;SDS011;23125;48.156;15.954;2023-03-14T04:31:17;8.70;;;5.68;;
37231;SDS011;23125;48.156;15.954;2023-03-14T04:33:45;7.80;;;5.05;;
37231;SDS011;23125;48.156;15.954;2023-03-14T04:36:11;9.27;;;5.20;;
37231;SDS011;23125;48.156;15.954;2023-03-14T04:38:38;9.20;;;5.05;;
37231;SDS011;23125;48.156;15.954;2023-03-14T04:41:04;10.32;;;5.80;;
37231;SDS011;23125;48.156;15.954;2023-03-14T04:43:32;8.57;;;5.57;;
37231;SDS011;23125;48.156;15.954;2023-03-14T04:45:59;8.45;;;5.28;;
37231;SDS011;23125;48.156;15.954;2023-03-14T04:48:25;9.35;;;5.15;;
37231;SDS011;23125;48.156;15.954;2023-03-14T04:50:52;10.15;;;5.30;;
37231;SDS011;23125;48.156;15.954;2023-03-14T04:53:18;10.63;;;5.07;;
37231;SDS011;23125;48.156;15.954;2023-03-14T04:55:48;7.28;;;4.68;;
37231;SDS011;23125;48.156;15.954;2023-03-14T04:58:15;5.80;;;3.95;;
37231;SDS011;23125;48.156;15.954;2023-03-14T05:00:41;7.65;;;4.85;;
37231;SDS011;23125;48.156;15.954;2023-03-14T05:03:07;7.28;;;4.40;;
37231;SDS011;23125;48.156;15.954;2023-03-14T05:05:33;6.75;;;4.78;;
37231;SDS011;23125;48.156;15.954;2023-03-14T05:07:58;5.10;;;4.10;;
37231;SDS011;23125;48.156;15.954;2023-03-14T05:10:24;7.63;;;5.20;;
37231;SDS011;23125;48.156;15.954;2023-03-14T05:12:51;8.10;;;4.90;;
37231;SDS011;23125;48.156;15.954;2023-03-14T05:15:16;9.82;;;4.70;;
37231;SDS011;23125;48.156;15.954;2023-03-14T05:17:42;8.05;;;4.15;;
37231;SDS011;23125;48.156;15.954;2023-03-14T05:20:08;5.82;;;3.83;;
37231;SDS011;23125;48.156;15.954;2023-03-14T05:22:38;6.97;;;4.43;;
37231;SDS011;23125;48.156;15.954;2023-03-14T05:25:05;8.45;;;4.35;;
37231;SDS011;23125;48.156;15.954;2023-03-14T05:27:32;6.88;;;3.95;;
37231;SDS011;23125;48.156;15.954;2023-03-14T05:29:58;5.30;;;3.85;;
37231;SDS011;23125;48.156;15.954;2023-03-14T05:32:24;6.82;;;4.28;;
37231;SDS011;23125;48.156;15.954;2023-03-14T05:34:50;5.85;;;3.80;;
37231;SDS011;23125;48.156;15.954;2023-03-14T05:37:16;7.60;;;3.58;;
37231;SDS011;23125;48.156;15.954;2023-03-14T05:39:42;4.10;;;3.05;;
37231;SDS011;23125;48.156;15.954;2023-03-14T05:42:07;5.47;;;3.15;;
37231;SDS011;23125;48.156;15.954;2023-03-14T05:44:33;4.28;;;3.10;;
37231;SDS011;23125;48.156;15.954;2023-03-14T05:46:59;4.70;;;2.30;;
37231;SDS011;23125;48.156;15.954;2023-03-14T05:49:25;3.70;;;2.63;;
37231;SDS011;23125;48.156;15.954;2023-03-14T05:51:51;3.42;;;1.42;;
37231;SDS011;23125;48.156;15.954;2023-03-14T05:54:16;2.80;;;1.40;;
37231;SDS011;23125;48.156;15.954;2023-03-14T05:56:42;1.95;;;1.25;;
37231;SDS011;23125;48.156;15.954;2023-03-14T05:59:08;1.35;;;0.45;;
37231;SDS011;23125;48.156;15.954;2023-03-14T06:01:35;2.33;;;0.80;;
37231;SDS011;23125;48.156;15.954;2023-03-14T06:04:01;1.88;;;0.60;;
37231;SDS011;23125;48.156;15.954;2023-03-14T06:06:26;1.77;;;0.65;;
37231;SDS011;23125;48.156;15.954;2023-03-14T06:08:52;1.27;;;0.63;;
37231;SDS011;23125;48.156;15.954;2023-03-14T06:11:19;2.55;;;1.05;;
37231;SDS011;23125;48.156;15.954;2023-03-14T06:13:45;1.35;;;0.73;;
37231;SDS011;23125;48.156;15.954;2023-03-14T06:16:11;1.23;;;0.77;;
37231;SDS011;23125;48.156;15.954;2023-03-14T06:18:38;1.88;;;0.60;;
37231;SDS011;23125;48.156;15.954;2023-03-14T06:21:03;1.35;;;0.70;;
37231;SDS011;23125;48.156;15.954;2023-03-14T06:23:30;2.50;;;0.85;;
37231;SDS011;23125;48.156;15.954;2023-03-14T06:25:57;1.15;;;0.50;;
37231;SDS011;23125;48.156;15.954;2023-03-14T06:28:23;1.98;;;0.60;;
37231;SDS011;23125;48.156;15.954;2023-03-14T06:30:49;1.38;;;0.40;;
37231;SDS011;23125;48.156;15.954;2023-03-14T06:33:14;1.17;;;0.65;;
37231;SDS011;23125;48.156;15.954;2023-03-14T06:35:40;1.40;;;0.60;;
37231;SDS011;23125;48.156;15.954;2023-03-14T06:38:06;2.35;;;1.02;;
37231;SDS011;23125;48.156;15.954;2023-03-14T06:40:32;2.90;;;1.33;;
37231;SDS011;23125;48.156;15.954;2023-03-14T06:42:58;1.65;;;0.77;;
37231;SDS011;23125;48.156;15.954;2023-03-14T06:45:24;1.52;;;0.70;;
37231;SDS011;23125;48.156;15.954;2023-03-14T06:47:49;1.05;;;0.60;;
37231;SDS011;23125;48.156;15.954;2023-03-14T06:50:15;2.75;;;0.73;;
37231;SDS011;23125;48.156;15.954;2023-03-14T06:52:41;1.30;;;0.50;;
37231;SDS011;23125;48.156;15.954;2023-03-14T06:55:13;1.55;;;0.90;;
37231;SDS011;23125;48.156;15.954;2023-03-14T06:57:40;1.35;;;1.00;;
37231;SDS011;23125;48.156;15.954;2023-03-14T07:00:06;2.10;;;0.88;;
37231;SDS011;23125;48.156;15.954;2023-03-14T07:02:33;1.55;;;0.90;;
37231;SDS011;23125;48.156;15.954;2023-03-14T07:04:59;1.40;;;0.80;;
37231;SDS011;23125;48.156;15.954;2023-03-14T07:07:26;1.13;;;0.65;;
37231;SDS011;23125;48.156;15.954;2023-03-14T07:09:53;0.82;;;0.50;;
37231;SDS011;23125;48.156;15.954;2023-03-14T07:12:18;1.65;;;0.60;;
37231;SDS011;23125;48.156;15.954;2023-03-14T07:14:44;0.75;;;0.50;;
37231;SDS011;23125;48.156;15.954;2023-03-14T07:17:10;2.53;;;1.02;;
37231;SDS011;23125;48.156;15.954;2023-03-14T07:19:36;4.60;;;2.22;;
37231;SDS011;23125;48.156;15.954;2023-03-14T07:22:04;9.15;;;3.88;;
37231;SDS011;23125;48.156;15.954;2023-03-14T07:24:30;9.93;;;4.38;;
37231;SDS011;23125;48.156;15.954;2023-03-14T07:26:56;1.17;;;0.80;;
37231;SDS011;23125;48.156;15.954;2023-03-14T07:29:22;4.20;;;2.28;;
37231;SDS011;23125;48.156;15.954;2023-03-14T07:31:48;2.35;;;1.25;;
37231;SDS011;23125;48.156;15.954;2023-03-14T07:34:14;5.45;;;3.10;;
37231;SDS011;23125;48.156;15.954;2023-03-14T07:36:40;0.75;;;0.60;;
37231;SDS011;23125;48.156;15.954;2023-03-14T07:39:05;3.70;;;2.05;;
37231;SDS011;23125;48.156;15.954;2023-03-14T07:41:32;2.17;;;1.10;;
37231;SDS011;23125;48.156;15.954;2023-03-14T07:43:58;0.75;;;0.20;;
37231;SDS011;23125;48.156;15.954;2023-03-14T07:46:24;1.10;;;0.60;;
37231;SDS011;23125;48.156;15.954;2023-03-14T07:48:50;1.58;;;0.40;;
37231;SDS011;23125;48.156;15.954;2023-03-14T07:51:16;1.20;;;0.70;;
37231;SDS011;23125;48.156;15.954;2023-03-14T07:53:42;1.08;;;0.40;;
37231;SDS011;23125;48.156;15.954;2023-03-14T07:56:09;0.50;;;0.28;;
37231;SDS011;23125;48.156;15.954;2023-03-14T07:58:35;0.52;;;0.22;;
37231;SDS011;23125;48.156;15.954;2023-03-14T08:01:00;0.25;;;0.10;;
37231;SDS011;23125;48.156;15.954;2023-03-14T08:03:26;0.70;;;0.30;;
37231;SDS011;23125;48.156;15.954;2023-03-14T08:05:52;0.80;;;0.40;;
37231;SDS011;23125;48.156;15.954;2023-03-14T08:08:18;2.30;;;1.17;;
37231;SDS011;23125;48.156;15.954;2023-03-14T08:10:44;0.40;;;0.20;;
37231;SDS011;23125;48.156;15.954;2023-03-14T08:13:11;0.28;;;0.10;;
37231;SDS011;23125;48.156;15.954;2023-03-14T08:15:37;0.32;;;0.10;;
37231;SDS011;23125;48.156;15.954;2023-03-14T08:18:03;0.75;;;0.20;;
37231;SDS011;23125;48.156;15.954;2023-03-14T08:20:29;0.30;;;0.08;;
37231;SDS011;23125;48.156;15.954;2023-03-14T08:22:59;0.13;;;0.05;;
37231;SDS011;23125;48.156;15.954;2023-03-14T08:25:26;0.40;;;0.10;;
37231;SDS011;23125;48.156;15.954;2023-03-14T08:27:53;0.10;;;0.10;;
37231;SDS011;23125;48.156;15.954;2023-03-14T08:30:20;0.25;;;0.20;;
37231;SDS011;23125;48.156;15.954;2023-03-14T08:32:47;0.10;;;0.00;;
37231;SDS011;23125;48.156;15.954;2023-03-14T08:35:13;0.30;;;0.10;;
37231;SDS011;23125;48.156;15.954;2023-03-14T08:37:39;0.30;;;0.20;;
37231;SDS011;23125;48.156;15.954;2023-03-14T08:40:06;0.17;;;0.00;;
37231;SDS011;23125;48.156;15.954;2023-03-14T08:42:38;0.47;;;0.00;;
37231;SDS011;23125;48.156;15.954;2023-03-14T08:45:05;1.27;;;0.10;;
37231;SDS011;23125;48.156;15.954;2023-03-14T08:47:33;0.10;;;0.00;;
37231;SDS011;23125;48.156;15.954;2023-03-14T08:49:59;0.10;;;0.03;;
37231;SDS011;23125;48.156;15.954;2023-03-14T08:52:24;0.10;;;0.10;;
37231;SDS011;23125;48.156;15.954;2023-03-14T08:54:50;3.67;;;0.30;;
37231;SDS011;23125;48.156;15.954;2023-03-14T08:57:16;15.85;;;1.85;;
37231;SDS011;23125;48.156;15.954;2023-03-14T08:59:42;2.00;;;0.10;;
37231;SDS011;23125;48.156;15.954;2023-03-14T09:02:11;1.77;;;0.38;;
37231;SDS011;23125;48.156;15.954;2023-03-14T09:04:37;0.47;;;0.10;;
37231;SDS011;23125;48.156;15.954;2023-03-14T09:07:02;0.30;;;0.15;;
37231;SDS011;23125;48.156;15.954;2023-03-14T09:09:28;1.98;;;0.20;;
37231;SDS011;23125;48.156;15.954;2023-03-14T09:11:57;2.77;;;0.20;;
37231;SDS011;23125;48.156;15.954;2023-03-14T09:14:23;1.48;;;0.20;;
37231;SDS011;23125;48.156;15.954;2023-03-14T09:16:49;0.22;;;0.10;;
37231;SDS011;23125;48.156;15.954;2023-03-14T09:19:16;0.28;;;0.10;;
37231;SDS011;23125;48.156;15.954;2023-03-14T09:21:42;0.50;;;0.13;;
37231;SDS011;23125;48.156;15.954;2023-03-14T09:24:08;0.32;;;0.10;;
37231;SDS011;23125;48.156;15.954;2023-03-14T09:26:34;0.45;;;0.13;;
37231;SDS011;23125;48.156;15.954;2023-03-14T09:29:00;0.43;;;0.15;;
37231;SDS011;23125;48.156;15.954;2023-03-14T09:31:25;2.35;;;0.30;;
37231;SDS011;23125;48.156;15.954;2023-03-14T09:33:52;1.90;;;0.30;;
37231;SDS011;23125;48.156;15.954;2023-03-14T09:36:18;0.00;;;0.00;;
37231;SDS011;23125;48.156;15.954;2023-03-14T09:38:44;0.32;;;0.13;;
37231;SDS011;23125;48.156;15.954;2023-03-14T09:41:31;1.42;;;0.13;;
37231;SDS011;23125;48.156;15.954;2023-03-14T09:44:03;0.60;;;0.10;;
37231;SDS011;23125;48.156;15.954;2023-03-14T09:46:30;0.40;;;0.10;;
37231;SDS011;23125;48.156;15.954;2023-03-14T09:51:25;1.52;;;0.20;;
37231;SDS011;23125;48.156;15.954;2023-03-14T09:53:52;1.88;;;0.57;;
37231;SDS011;23125;48.156;15.954;2023-03-14T09:56:19;1.23;;;0.60;;
37231;SDS011;23125;48.156;15.954;2023-03-14T10:01:16;0.47;;;0.22;;
37231;SDS011;23125;48.156;15.954;2023-03-14T10:03:49;1.38;;;0.80;;
37231;SDS011;23125;48.156;15.954;2023-03-14T10:06:19;0.65;;;0.40;;
37231;SDS011;23125;48.156;15.954;2023-03-14T10:08:46;0.57;;;0.30;;
37231;SDS011;23125;48.156;15.954;2023-03-14T10:11:16;0.70;;;0.50;;
37231;SDS011;23125;48.156;15.954;2023-03-14T10:13:48;2.05;;;0.60;;
37231;SDS011;23125;48.156;15.954;2023-03-14T10:16:42;0.43;;;0.20;;
37231;SDS011;23125;48.156;15.954;2023-03-14T10:19:11;0.40;;;0.20;;
37231;SDS011;23125;48.156;15.954;2023-03-14T10:21:39;0.90;;;0.37;;
37231;SDS011;23125;48.156;15.954;2023-03-14T10:26:54;1.05;;;0.20;;
37231;SDS011;23125;48.156;15.954;2023-03-14T10:29:27;0.38;;;0.30;;
37231;SDS011;23125;48.156;15.954;2023-03-14T10:31:59;1.50;;;0.60;;
37231;SDS011;23125;48.156;15.954;2023-03-14T10:39:49;0.73;;;0.20;;
37231;SDS011;23125;48.156;15.954;2023-03-14T10:44:57;1.08;;;0.20;;
37231;SDS011;23125;48.156;15.954;2023-03-14T10:47:26;0.57;;;0.30;;
37231;SDS011;23125;48.156;15.954;2023-03-14T10:49:56;0.47;;;0.20;;
37231;SDS011;23125;48.156;15.954;2023-03-14T10:52:46;1.70;;;0.88;;
37231;SDS011;23125;48.156;15.954;2023-03-14T10:55:14;1.02;;;0.40;;
37231;SDS011;23125;48.156;15.954;2023-03-14T10:57:40;1.02;;;0.70;;
37231;SDS011;23125;48.156;15.954;2023-03-14T11:00:17;0.43;;;0.30;;
37231;SDS011;23125;48.156;15.954;2023-03-14T11:05:34;0.80;;;0.47;;
37231;SDS011;23125;48.156;15.954;2023-03-14T11:08:08;0.30;;;0.20;;
37231;SDS011;23125;48.156;15.954;2023-03-14T11:10:38;0.30;;;0.10;;
37231;SDS011;23125;48.156;15.954;2023-03-14T11:27:17;0.10;;;0.08;;
37231;SDS011;23125;48.156;15.954;2023-03-14T11:35:40;1.13;;;0.10;;
37231;SDS011;23125;48.156;15.954;2023-03-14T11:40:39;0.10;;;0.10;;
37231;SDS011;23125;48.156;15.954;2023-03-14T11:43:18;0.60;;;0.10;;
37231;SDS011;23125;48.156;15.954;2023-03-14T11:45:52;2.33;;;0.20;;
37231;SDS011;23125;48.156;15.954;2023-03-14T11:48:25;0.45;;;0.00;;
37231;SDS011;23125;48.156;15.954;2023-03-14T11:51:01;1.83;;;0.17;;
37231;SDS011;23125;48.156;15.954;2023-03-14T11:56:44;1.23;;;0.30;;
37231;SDS011;23125;48.156;15.954;2023-03-14T12:10:42;1.17;;;0.20;;
37231;SDS011;23125;48.156;15.954;2023-03-14T12:13:18;1.60;;;0.20;;
37231;SDS011;23125;48.156;15.954;2023-03-14T12:15:49;0.10;;;0.10;;
37231;SDS011;23125;48.156;15.954;2023-03-14T12:18:38;0.60;;;0.20;;
37231;SDS011;23125;48.156;15.954;2023-03-14T12:21:07;0.85;;;0.10;;
37231;SDS011;23125;48.156;15.954;2023-03-14T12:23:41;1.27;;;0.10;;
37231;SDS011;23125;48.156;15.954;2023-03-14T12:26:17;0.17;;;0.05;;
37231;SDS011;23125;48.156;15.954;2023-03-14T12:31:43;0.30;;;0.00;;
37231;SDS011;23125;48.156;15.954;2023-03-14T12:42:04;1.33;;;0.43;;
37231;SDS011;23125;48.156;15.954;2023-03-14T12:44:48;0.98;;;0.60;;
37231;SDS011;23125;48.156;15.954;2023-03-14T12:49:53;1.95;;;0.80;;
37231;SDS011;23125;48.156;15.954;2023-03-14T12:52:30;1.38;;;0.73;;
37231;SDS011;23125;48.156;15.954;2023-03-14T12:55:10;1.42;;;0.60;;
37231;SDS011;23125;48.156;15.954;2023-03-14T12:58:08;3.35;;;1.58;;
37231;SDS011;23125;48.156;15.954;2023-03-14T13:00:42;0.77;;;0.13;;
37231;SDS011;23125;48.156;15.954;2023-03-14T13:03:24;0.15;;;0.00;;
37231;SDS011;23125;48.156;15.954;2023-03-14T13:05:55;0.30;;;0.10;;
37231;SDS011;23125;48.156;15.954;2023-03-14T13:11:21;0.10;;;0.00;;
37231;SDS011;23125;48.156;15.954;2023-03-14T13:13:50;0.22;;;0.10;;
37231;SDS011;23125;48.156;15.954;2023-03-14T13:16:21;0.28;;;0.00;;
37231;SDS011;23125;48.156;15.954;2023-03-14T13:18:48;0.20;;;0.10;;
37231;SDS011;23125;48.156;15.954;2023-03-14T13:21:34;0.20;;;0.10;;
37231;SDS011;23125;48.156;15.954;2023-03-14T13:24:03;0.73;;;0.30;;
37231;SDS011;23125;48.156;15.954;2023-03-14T13:26:40;0.80;;;0.20;;
37231;SDS011;23125;48.156;15.954;2023-03-14T13:29:08;0.45;;;0.10;;
37231;SDS011;23125;48.156;15.954;2023-03-14T13:31:43;0.57;;;0.10;;
37231;SDS011;23125;48.156;15.954;2023-03-14T13:34:11;0.52;;;0.20;;
37231;SDS011;23125;48.156;15.954;2023-03-14T13:36:37;5.50;;;2.72;;
37231;SDS011;23125;48.156;15.954;2023-03-14T13:39:04;3.97;;;1.92;;
37231;SDS011;23125;48.156;15.954;2023-03-14T13:41:38;2.47;;;1.20;;
37231;SDS011;23125;48.156;15.954;2023-03-14T13:44:06;1.45;;;0.40;;
37231;SDS011;23125;48.156;15.954;2023-03-14T13:46:34;2.50;;;0.60;;
37231;SDS011;23125;48.156;15.954;2023-03-14T13:49:02;3.28;;;1.17;;
37231;SDS011;23125;48.156;15.954;2023-03-14T13:51:38;1.63;;;0.43;;
37231;SDS011;23125;48.156;15.954;2023-03-14T13:54:12;0.50;;;0.10;;
37231;SDS011;23125;48.156;15.954;2023-03-14T13:56:43;3.35;;;1.17;;
37231;SDS011;23125;48.156;15.954;2023-03-14T13:59:22;0.90;;;0.50;;
37231;SDS011;23125;48.156;15.954;2023-03-14T14:01:52;0.28;;;0.00;;
37231;SDS011;23125;48.156;15.954;2023-03-14T14:04:21;0.25;;;0.00;;
37231;SDS011;23125;48.156;15.954;2023-03-14T14:06:50;0.00;;;0.00;;
37231;SDS011;23125;48.156;15.954;2023-03-14T14:09:21;1.10;;;0.17;;
37231;SDS011;23125;48.156;15.954;2023-03-14T14:11:50;2.97;;;0.90;;
37231;SDS011;23125;48.156;15.954;2023-03-14T14:14:30;4.25;;;1.30;;
37231;SDS011;23125;48.156;15.954;2023-03-14T14:17:01;9.57;;;3.83;;
37231;SDS011;23125;48.156;15.954;2023-03-14T14:19:30;1.73;;;0.40;;
37231;SDS011;23125;48.156;15.954;2023-03-14T14:21:59;3.42;;;0.93;;
37231;SDS011;23125;48.156;15.954;2023-03-14T14:24:28;2.30;;;0.77;;
37231;SDS011;23125;48.156;15.954;2023-03-14T14:29:56;3.05;;;1.25;;
37231;SDS011;23125;48.156;15.954;2023-03-14T14:32:35;9.60;;;4.05;;
37231;SDS011;23125;48.156;15.954;2023-03-14T14:35:03;2.63;;;0.90;;
37231;SDS011;23125;48.156;15.954;2023-03-14T14:37:31;7.10;;;3.38;;
37231;SDS011;23125;48.156;15.954;2023-03-14T14:40:24;4.13;;;1.70;;
37231;SDS011;23125;48.156;15.954;2023-03-14T14:42:52;0.45;;;0.10;;
37231;SDS011;23125;48.156;15.954;2023-03-14T14:45:20;2.15;;;0.90;;
37231;SDS011;23125;48.156;15.954;2023-03-14T14:47:53;3.53;;;1.40;;
37231;SDS011;23125;48.156;15.954;2023-03-14T14:50:37;4.03;;;1.27;;
37231;SDS011;23125;48.156;15.954;2023-03-14T14:53:25;3.72;;;1.55;;
37231;SDS011;23125;48.156;15.954;2023-03-14T14:56:26;1.63;;;0.95;;
37231;SDS011;23125;48.156;15.954;2023-03-14T14:58:56;1.88;;;0.95;;
37231;SDS011;23125;48.156;15.954;2023-03-14T15:01:25;2.08;;;0.88;;
37231;SDS011;23125;48.156;15.954;2023-03-14T15:03:56;0.40;;;0.30;;
37231;SDS011;23125;48.156;15.954;2023-03-14T15:06:21;2.55;;;0.73;;
37231;SDS011;23125;48.156;15.954;2023-03-14T15:08:52;3.95;;;0.70;;
37231;SDS011;23125;48.156;15.954;2023-03-14T15:11:22;1.98;;;0.98;;
37231;SDS011;23125;48.156;15.954;2023-03-14T15:13:51;0.85;;;0.47;;
37231;SDS011;23125;48.156;15.954;2023-03-14T15:16:18;0.13;;;0.10;;
37231;SDS011;23125;48.156;15.954;2023-03-14T15:18:52;0.65;;;0.50;;
37231;SDS011;23125;48.156;15.954;2023-03-14T15:21:22;1.25;;;0.45;;
37231;SDS011;23125;48.156;15.954;2023-03-14T15:23:49;1.73;;;0.40;;
37231;SDS011;23125;48.156;15.954;2023-03-14T15:26:18;1.05;;;0.30;;
37231;SDS011;23125;48.156;15.954;2023-03-14T15:28:47;1.40;;;0.45;;
37231;SDS011;23125;48.156;15.954;2023-03-14T15:31:14;0.63;;;0.10;;
37231;SDS011;23125;48.156;15.954;2023-03-14T15:33:43;15.40;;;8.50;;
37231;SDS011;23125;48.156;15.954;2023-03-14T15:36:19;5.45;;;1.27;;
37231;SDS011;23125;48.156;15.954;2023-03-14T15:38:51;1.15;;;0.47;;
37231;SDS011;23125;48.156;15.954;2023-03-14T15:41:18;1.48;;;0.22;;
37231;SDS011;23125;48.156;15.954;2023-03-14T15:43:45;1.90;;;0.50;;
37231;SDS011;23125;48.156;15.954;2023-03-14T15:46:12;1.05;;;0.57;;
37231;SDS011;23125;48.156;15.954;2023-03-14T15:48:40;0.30;;;0.10;;
37231;SDS011;23125;48.156;15.954;2023-03-14T15:51:06;2.67;;;0.20;;
37231;SDS011;23125;48.156;15.954;2023-03-14T15:53:32;1.40;;;0.20;;
37231;SDS011;23125;48.156;15.954;2023-03-14T15:55:58;2.10;;;0.32;;
37231;SDS011;23125;48.156;15.954;2023-03-14T15:58:24;1.02;;;0.20;;
37231;SDS011;23125;48.156;15.954;2023-03-14T16:00:50;2.03;;;0.73;;
37231;SDS011;23125;48.156;15.954;2023-03-14T16:03:17;2.15;;;1.10;;
37231;SDS011;23125;48.156;15.954;2023-03-14T16:05:43;0.77;;;0.45;;